Terminal Aerodrome Forecast
Issued by NWS

Home | Current Version | Previous Version | Text Only | Print | Product List | Glossary On
Versions: 1 2 3 4 5 6 7 8 9 10 11 12 13 14 15 16 17 18 19
128
FTUS45 KTFX 050147 AAA
TAFHLN
TAF AMD
KHLN 050147Z 0502/0524 25010G20KT P6SM VCSH SCT050 BKN070
     FM050300 30015KT P6SM VCSH BKN035
      TEMPO 0503/0506 2SM -SN OVC025
     FM051200 33007KT P6SM BKN025 PROB30 0512/0518 4SM -SN OVC015
     FM051800 35008KT P6SM SCT050=

USA.gov is the U.S. government's official web portal to all federal, state and local government web resources and services.